sensor_id;sensor_type;location;lat;lon;timestamp;P1;durP1;ratioP1;P2;durP2;ratioP2
43363;SDS011;40636;52.424;-1.948;2023-04-28T00:00:31;31.10;;;17.95;;
43363;SDS011;40636;52.424;-1.948;2023-04-28T00:02:57;34.97;;;16.17;;
43363;SDS011;40636;52.424;-1.948;2023-04-28T00:05:24;31.83;;;16.55;;
43363;SDS011;40636;52.424;-1.948;2023-04-28T00:07:52;30.80;;;16.60;;
43363;SDS011;40636;52.424;-1.948;2023-04-28T00:10:18;28.58;;;15.35;;
43363;SDS011;40636;52.424;-1.948;2023-04-28T00:12:45;33.35;;;16.33;;
43363;SDS011;40636;52.424;-1.948;2023-04-28T00:15:11;30.42;;;15.38;;
43363;SDS011;40636;52.424;-1.948;2023-04-28T00:17:38;32.70;;;16.23;;
43363;SDS011;40636;52.424;-1.948;2023-04-28T00:20:05;30.13;;;16.85;;
43363;SDS011;40636;52.424;-1.948;2023-04-28T00:22:32;34.00;;;16.27;;
43363;SDS011;40636;52.424;-1.948;2023-04-28T00:24:59;28.60;;;15.07;;
43363;SDS011;40636;52.424;-1.948;2023-04-28T00:27:26;31.27;;;16.90;;
43363;SDS011;40636;52.424;-1.948;2023-04-28T00:29:52;29.95;;;16.25;;
43363;SDS011;40636;52.424;-1.948;2023-04-28T00:32:19;32.85;;;17.95;;
43363;SDS011;40636;52.424;-1.948;2023-04-28T00:34:46;29.38;;;16.55;;
43363;SDS011;40636;52.424;-1.948;2023-04-28T00:37:13;29.45;;;15.77;;
43363;SDS011;40636;52.424;-1.948;2023-04-28T00:39:39;34.13;;;17.10;;
43363;SDS011;40636;52.424;-1.948;2023-04-28T00:42:06;33.08;;;16.88;;
43363;SDS011;40636;52.424;-1.948;2023-04-28T00:44:33;31.20;;;15.57;;
43363;SDS011;40636;52.424;-1.948;2023-04-28T00:47:00;32.65;;;16.08;;
43363;SDS011;40636;52.424;-1.948;2023-04-28T00:49:26;31.98;;;15.68;;
43363;SDS011;40636;52.424;-1.948;2023-04-28T00:51:53;29.00;;;15.95;;
43363;SDS011;40636;52.424;-1.948;2023-04-28T00:54:20;34.45;;;16.83;;
43363;SDS011;40636;52.424;-1.948;2023-04-28T00:56:47;36.35;;;17.10;;
43363;SDS011;40636;52.424;-1.948;2023-04-28T00:59:14;32.47;;;16.02;;
43363;SDS011;40636;52.424;-1.948;2023-04-28T01:01:41;31.13;;;15.85;;
43363;SDS011;40636;52.424;-1.948;2023-04-28T01:04:07;29.35;;;15.32;;
43363;SDS011;40636;52.424;-1.948;2023-04-28T01:06:34;30.67;;;16.08;;
43363;SDS011;40636;52.424;-1.948;2023-04-28T01:09:03;32.38;;;17.30;;
43363;SDS011;40636;52.424;-1.948;2023-04-28T01:11:31;31.40;;;15.90;;
43363;SDS011;40636;52.424;-1.948;2023-04-28T01:13:58;28.23;;;15.98;;
43363;SDS011;40636;52.424;-1.948;2023-04-28T01:16:25;33.33;;;15.32;;
43363;SDS011;40636;52.424;-1.948;2023-04-28T01:18:52;36.08;;;16.80;;
43363;SDS011;40636;52.424;-1.948;2023-04-28T01:21:26;35.08;;;17.00;;
43363;SDS011;40636;52.424;-1.948;2023-04-28T01:23:58;33.58;;;16.35;;
43363;SDS011;40636;52.424;-1.948;2023-04-28T01:26:25;41.35;;;18.38;;
43363;SDS011;40636;52.424;-1.948;2023-04-28T01:28:51;39.20;;;17.48;;
43363;SDS011;40636;52.424;-1.948;2023-04-28T01:31:18;34.53;;;15.77;;
43363;SDS011;40636;52.424;-1.948;2023-04-28T01:33:45;36.78;;;17.33;;
43363;SDS011;40636;52.424;-1.948;2023-04-28T01:36:12;38.15;;;17.52;;
43363;SDS011;40636;52.424;-1.948;2023-04-28T01:38:38;36.33;;;17.65;;
43363;SDS011;40636;52.424;-1.948;2023-04-28T01:41:05;38.35;;;18.10;;
43363;SDS011;40636;52.424;-1.948;2023-04-28T01:43:32;35.50;;;18.25;;
43363;SDS011;40636;52.424;-1.948;2023-04-28T01:45:58;36.42;;;17.77;;
43363;SDS011;40636;52.424;-1.948;2023-04-28T01:48:25;40.97;;;18.52;;
43363;SDS011;40636;52.424;-1.948;2023-04-28T01:50:52;40.00;;;17.75;;
43363;SDS011;40636;52.424;-1.948;2023-04-28T01:53:18;33.95;;;17.15;;
43363;SDS011;40636;52.424;-1.948;2023-04-28T01:55:45;37.08;;;18.65;;
43363;SDS011;40636;52.424;-1.948;2023-04-28T01:58:12;36.67;;;16.30;;
43363;SDS011;40636;52.424;-1.948;2023-04-28T02:00:39;38.78;;;18.83;;
43363;SDS011;40636;52.424;-1.948;2023-04-28T02:03:06;38.60;;;19.00;;
43363;SDS011;40636;52.424;-1.948;2023-04-28T02:05:33;36.88;;;18.33;;
43363;SDS011;40636;52.424;-1.948;2023-04-28T02:07:59;37.03;;;18.65;;
43363;SDS011;40636;52.424;-1.948;2023-04-28T02:10:26;39.78;;;18.25;;
43363;SDS011;40636;52.424;-1.948;2023-04-28T02:12:53;39.55;;;18.35;;
43363;SDS011;40636;52.424;-1.948;2023-04-28T02:15:20;36.55;;;17.05;;
43363;SDS011;40636;52.424;-1.948;2023-04-28T02:17:47;41.15;;;18.13;;
43363;SDS011;40636;52.424;-1.948;2023-04-28T02:20:13;42.67;;;19.38;;
43363;SDS011;40636;52.424;-1.948;2023-04-28T02:22:40;38.00;;;18.25;;
43363;SDS011;40636;52.424;-1.948;2023-04-28T02:25:07;44.80;;;18.52;;
43363;SDS011;40636;52.424;-1.948;2023-04-28T02:27:34;42.28;;;18.90;;
43363;SDS011;40636;52.424;-1.948;2023-04-28T02:30:04;42.13;;;20.00;;
43363;SDS011;40636;52.424;-1.948;2023-04-28T02:32:32;43.85;;;19.20;;
43363;SDS011;40636;52.424;-1.948;2023-04-28T02:34:59;39.47;;;18.52;;
43363;SDS011;40636;52.424;-1.948;2023-04-28T02:37:25;39.30;;;17.77;;
43363;SDS011;40636;52.424;-1.948;2023-04-28T02:39:52;37.58;;;18.63;;
43363;SDS011;40636;52.424;-1.948;2023-04-28T02:42:19;35.13;;;17.58;;
43363;SDS011;40636;52.424;-1.948;2023-04-28T02:44:46;39.03;;;17.00;;
43363;SDS011;40636;52.424;-1.948;2023-04-28T02:47:12;34.45;;;17.60;;
43363;SDS011;40636;52.424;-1.948;2023-04-28T02:49:39;38.10;;;17.98;;
43363;SDS011;40636;52.424;-1.948;2023-04-28T02:52:06;40.45;;;17.95;;
43363;SDS011;40636;52.424;-1.948;2023-04-28T02:54:32;34.20;;;15.18;;
43363;SDS011;40636;52.424;-1.948;2023-04-28T02:57:01;38.85;;;17.45;;
43363;SDS011;40636;52.424;-1.948;2023-04-28T02:59:29;38.53;;;15.98;;
43363;SDS011;40636;52.424;-1.948;2023-04-28T03:01:56;41.75;;;17.67;;
43363;SDS011;40636;52.424;-1.948;2023-04-28T03:04:23;36.78;;;15.48;;
43363;SDS011;40636;52.424;-1.948;2023-04-28T03:06:50;38.70;;;18.40;;
43363;SDS011;40636;52.424;-1.948;2023-04-28T03:09:17;28.55;;;14.90;;
43363;SDS011;40636;52.424;-1.948;2023-04-28T03:11:43;36.70;;;16.63;;
43363;SDS011;40636;52.424;-1.948;2023-04-28T03:14:10;37.20;;;16.80;;
43363;SDS011;40636;52.424;-1.948;2023-04-28T03:16:37;39.50;;;16.45;;
43363;SDS011;40636;52.424;-1.948;2023-04-28T03:19:03;37.47;;;16.17;;
43363;SDS011;40636;52.424;-1.948;2023-04-28T03:21:30;31.13;;;14.65;;
43363;SDS011;40636;52.424;-1.948;2023-04-28T03:23:57;31.50;;;15.55;;
43363;SDS011;40636;52.424;-1.948;2023-04-28T03:26:24;36.17;;;16.42;;
43363;SDS011;40636;52.424;-1.948;2023-04-28T03:28:51;38.22;;;17.35;;
43363;SDS011;40636;52.424;-1.948;2023-04-28T03:31:18;33.97;;;15.77;;
43363;SDS011;40636;52.424;-1.948;2023-04-28T03:33:44;37.53;;;16.15;;
43363;SDS011;40636;52.424;-1.948;2023-04-28T03:36:12;43.17;;;18.33;;
43363;SDS011;40636;52.424;-1.948;2023-04-28T03:38:39;38.38;;;16.45;;
43363;SDS011;40636;52.424;-1.948;2023-04-28T03:41:05;36.78;;;18.40;;
43363;SDS011;40636;52.424;-1.948;2023-04-28T03:43:32;39.03;;;17.75;;
43363;SDS011;40636;52.424;-1.948;2023-04-28T03:46:00;38.88;;;16.63;;
43363;SDS011;40636;52.424;-1.948;2023-04-28T03:48:27;39.92;;;16.30;;
43363;SDS011;40636;52.424;-1.948;2023-04-28T03:50:54;42.60;;;18.00;;
43363;SDS011;40636;52.424;-1.948;2023-04-28T03:53:20;44.35;;;15.98;;
43363;SDS011;40636;52.424;-1.948;2023-04-28T03:55:47;38.03;;;17.60;;
43363;SDS011;40636;52.424;-1.948;2023-04-28T03:58:14;40.33;;;17.48;;
43363;SDS011;40636;52.424;-1.948;2023-04-28T04:00:40;40.13;;;17.63;;
43363;SDS011;40636;52.424;-1.948;2023-04-28T04:03:07;45.33;;;17.08;;
43363;SDS011;40636;52.424;-1.948;2023-04-28T04:05:33;40.55;;;16.50;;
43363;SDS011;40636;52.424;-1.948;2023-04-28T04:08:00;43.40;;;18.17;;
43363;SDS011;40636;52.424;-1.948;2023-04-28T04:10:28;42.45;;;16.83;;
43363;SDS011;40636;52.424;-1.948;2023-04-28T04:12:55;42.70;;;18.30;;
43363;SDS011;40636;52.424;-1.948;2023-04-28T04:15:21;45.15;;;16.88;;
43363;SDS011;40636;52.424;-1.948;2023-04-28T04:17:48;43.55;;;17.73;;
43363;SDS011;40636;52.424;-1.948;2023-04-28T04:20:15;47.50;;;18.15;;
43363;SDS011;40636;52.424;-1.948;2023-04-28T04:22:41;44.30;;;18.05;;
43363;SDS011;40636;52.424;-1.948;2023-04-28T04:25:08;41.17;;;16.23;;
43363;SDS011;40636;52.424;-1.948;2023-04-28T04:27:35;42.50;;;16.45;;
43363;SDS011;40636;52.424;-1.948;2023-04-28T04:30:01;39.20;;;17.10;;
43363;SDS011;40636;52.424;-1.948;2023-04-28T04:32:28;42.30;;;18.40;;
43363;SDS011;40636;52.424;-1.948;2023-04-28T04:34:55;43.33;;;17.42;;
43363;SDS011;40636;52.424;-1.948;2023-04-28T04:37:22;44.70;;;18.45;;
43363;SDS011;40636;52.424;-1.948;2023-04-28T04:39:49;42.58;;;18.38;;
43363;SDS011;40636;52.424;-1.948;2023-04-28T04:42:15;39.55;;;16.92;;
43363;SDS011;40636;52.424;-1.948;2023-04-28T04:44:48;46.97;;;17.00;;
43363;SDS011;40636;52.424;-1.948;2023-04-28T04:47:14;39.78;;;17.55;;
43363;SDS011;40636;52.424;-1.948;2023-04-28T04:49:41;40.95;;;17.40;;
43363;SDS011;40636;52.424;-1.948;2023-04-28T04:52:08;42.75;;;17.67;;
43363;SDS011;40636;52.424;-1.948;2023-04-28T04:54:34;40.45;;;17.70;;
43363;SDS011;40636;52.424;-1.948;2023-04-28T04:57:01;43.20;;;19.15;;
43363;SDS011;40636;52.424;-1.948;2023-04-28T04:59:28;40.15;;;18.40;;
43363;SDS011;40636;52.424;-1.948;2023-04-28T05:01:55;39.80;;;16.95;;
43363;SDS011;40636;52.424;-1.948;2023-04-28T05:04:22;43.63;;;17.77;;
43363;SDS011;40636;52.424;-1.948;2023-04-28T05:06:49;37.97;;;16.23;;
43363;SDS011;40636;52.424;-1.948;2023-04-28T05:09:16;41.45;;;16.23;;
43363;SDS011;40636;52.424;-1.948;2023-04-28T05:11:43;45.20;;;16.63;;
43363;SDS011;40636;52.424;-1.948;2023-04-28T05:14:10;40.97;;;17.20;;
43363;SDS011;40636;52.424;-1.948;2023-04-28T05:16:37;39.50;;;15.48;;
43363;SDS011;40636;52.424;-1.948;2023-04-28T05:19:04;35.10;;;16.65;;
43363;SDS011;40636;52.424;-1.948;2023-04-28T05:21:31;39.17;;;15.85;;
43363;SDS011;40636;52.424;-1.948;2023-04-28T05:23:58;34.85;;;15.10;;
43363;SDS011;40636;52.424;-1.948;2023-04-28T05:26:24;41.60;;;17.90;;
43363;SDS011;40636;52.424;-1.948;2023-04-28T05:28:51;41.80;;;17.05;;
43363;SDS011;40636;52.424;-1.948;2023-04-28T05:31:18;39.60;;;17.15;;
43363;SDS011;40636;52.424;-1.948;2023-04-28T05:33:45;40.50;;;16.98;;
43363;SDS011;40636;52.424;-1.948;2023-04-28T05:36:12;32.13;;;15.25;;
43363;SDS011;40636;52.424;-1.948;2023-04-28T05:38:38;42.92;;;17.42;;
43363;SDS011;40636;52.424;-1.948;2023-04-28T05:41:05;33.00;;;14.20;;
43363;SDS011;40636;52.424;-1.948;2023-04-28T05:43:32;44.60;;;17.48;;
43363;SDS011;40636;52.424;-1.948;2023-04-28T05:45:59;34.85;;;15.35;;
43363;SDS011;40636;52.424;-1.948;2023-04-28T05:48:26;31.52;;;14.32;;
43363;SDS011;40636;52.424;-1.948;2023-04-28T05:50:53;37.30;;;13.82;;
43363;SDS011;40636;52.424;-1.948;2023-04-28T05:53:19;32.58;;;14.93;;
43363;SDS011;40636;52.424;-1.948;2023-04-28T05:55:46;34.20;;;13.77;;
43363;SDS011;40636;52.424;-1.948;2023-04-28T05:58:13;34.03;;;12.80;;
43363;SDS011;40636;52.424;-1.948;2023-04-28T06:00:40;38.22;;;14.77;;
43363;SDS011;40636;52.424;-1.948;2023-04-28T06:03:06;31.77;;;12.95;;
43363;SDS011;40636;52.424;-1.948;2023-04-28T06:05:36;27.90;;;11.35;;
43363;SDS011;40636;52.424;-1.948;2023-04-28T06:08:04;14.95;;;7.50;;
43363;SDS011;40636;52.424;-1.948;2023-04-28T06:10:30;13.43;;;5.78;;
43363;SDS011;40636;52.424;-1.948;2023-04-28T06:12:57;11.73;;;6.78;;
43363;SDS011;40636;52.424;-1.948;2023-04-28T06:15:24;12.98;;;5.40;;
43363;SDS011;40636;52.424;-1.948;2023-04-28T06:17:51;11.48;;;5.45;;
43363;SDS011;40636;52.424;-1.948;2023-04-28T06:20:18;10.77;;;5.97;;
43363;SDS011;40636;52.424;-1.948;2023-04-28T06:22:45;11.38;;;5.82;;
43363;SDS011;40636;52.424;-1.948;2023-04-28T06:25:12;12.20;;;6.00;;
43363;SDS011;40636;52.424;-1.948;2023-04-28T06:27:39;15.73;;;7.57;;
43363;SDS011;40636;52.424;-1.948;2023-04-28T06:30:05;11.25;;;5.80;;
43363;SDS011;40636;52.424;-1.948;2023-04-28T06:32:33;13.80;;;7.10;;
43363;SDS011;40636;52.424;-1.948;2023-04-28T06:34:59;14.60;;;6.75;;
43363;SDS011;40636;52.424;-1.948;2023-04-28T06:37:26;12.48;;;6.65;;
43363;SDS011;40636;52.424;-1.948;2023-04-28T06:39:53;12.18;;;5.68;;
43363;SDS011;40636;52.424;-1.948;2023-04-28T06:42:19;14.85;;;7.22;;
43363;SDS011;40636;52.424;-1.948;2023-04-28T06:44:46;13.52;;;6.63;;
43363;SDS011;40636;52.424;-1.948;2023-04-28T06:47:13;10.52;;;6.05;;
43363;SDS011;40636;52.424;-1.948;2023-04-28T06:49:39;12.45;;;5.60;;
43363;SDS011;40636;52.424;-1.948;2023-04-28T06:52:09;11.00;;;5.43;;
43363;SDS011;40636;52.424;-1.948;2023-04-28T06:54:36;9.48;;;5.03;;
43363;SDS011;40636;52.424;-1.948;2023-04-28T06:57:03;12.48;;;6.55;;
43363;SDS011;40636;52.424;-1.948;2023-04-28T06:59:30;13.52;;;6.80;;
43363;SDS011;40636;52.424;-1.948;2023-04-28T07:01:57;14.13;;;6.85;;
43363;SDS011;40636;52.424;-1.948;2023-04-28T07:04:25;11.57;;;6.53;;
43363;SDS011;40636;52.424;-1.948;2023-04-28T07:06:52;12.65;;;6.32;;
43363;SDS011;40636;52.424;-1.948;2023-04-28T07:09:19;14.50;;;6.50;;
43363;SDS011;40636;52.424;-1.948;2023-04-28T07:11:46;11.40;;;5.70;;
43363;SDS011;40636;52.424;-1.948;2023-04-28T07:14:14;11.57;;;5.50;;
43363;SDS011;40636;52.424;-1.948;2023-04-28T07:16:41;15.30;;;5.15;;
43363;SDS011;40636;52.424;-1.948;2023-04-28T07:19:08;12.90;;;6.53;;
43363;SDS011;40636;52.424;-1.948;2023-04-28T07:21:35;10.30;;;5.65;;
43363;SDS011;40636;52.424;-1.948;2023-04-28T07:24:02;8.43;;;4.07;;
43363;SDS011;40636;52.424;-1.948;2023-04-28T07:26:29;7.97;;;4.32;;
43363;SDS011;40636;52.424;-1.948;2023-04-28T07:28:56;8.35;;;4.53;;
43363;SDS011;40636;52.424;-1.948;2023-04-28T07:31:22;7.90;;;3.97;;
43363;SDS011;40636;52.424;-1.948;2023-04-28T07:33:49;9.45;;;4.82;;
43363;SDS011;40636;52.424;-1.948;2023-04-28T07:36:16;6.75;;;4.10;;
43363;SDS011;40636;52.424;-1.948;2023-04-28T07:38:43;10.00;;;4.43;;
43363;SDS011;40636;52.424;-1.948;2023-04-28T07:41:10;5.43;;;2.72;;
43363;SDS011;40636;52.424;-1.948;2023-04-28T07:43:38;5.03;;;3.03;;
43363;SDS011;40636;52.424;-1.948;2023-04-28T07:46:06;7.85;;;3.67;;
43363;SDS011;40636;52.424;-1.948;2023-04-28T07:48:34;8.27;;;4.25;;
43363;SDS011;40636;52.424;-1.948;2023-04-28T07:51:00;9.27;;;4.43;;
43363;SDS011;40636;52.424;-1.948;2023-04-28T07:53:27;7.50;;;3.92;;
43363;SDS011;40636;52.424;-1.948;2023-04-28T07:55:55;9.20;;;5.38;;
43363;SDS011;40636;52.424;-1.948;2023-04-28T07:58:22;8.70;;;4.70;;
43363;SDS011;40636;52.424;-1.948;2023-04-28T08:00:48;11.23;;;5.10;;
43363;SDS011;40636;52.424;-1.948;2023-04-28T08:03:17;13.13;;;6.03;;
43363;SDS011;40636;52.424;-1.948;2023-04-28T08:05:44;12.70;;;5.85;;
43363;SDS011;40636;52.424;-1.948;2023-04-28T08:08:11;12.55;;;5.18;;
43363;SDS011;40636;52.424;-1.948;2023-04-28T08:10:37;11.43;;;6.30;;
43363;SDS011;40636;52.424;-1.948;2023-04-28T08:13:07;11.02;;;5.47;;
43363;SDS011;40636;52.424;-1.948;2023-04-28T08:15:33;15.68;;;6.47;;
43363;SDS011;40636;52.424;-1.948;2023-04-28T08:18:01;11.75;;;5.93;;
43363;SDS011;40636;52.424;-1.948;2023-04-28T08:20:28;15.00;;;7.50;;
43363;SDS011;40636;52.424;-1.948;2023-04-28T08:22:55;15.20;;;6.53;;
43363;SDS011;40636;52.424;-1.948;2023-04-28T08:25:22;13.65;;;6.82;;
43363;SDS011;40636;52.424;-1.948;2023-04-28T08:27:49;14.88;;;6.90;;
43363;SDS011;40636;52.424;-1.948;2023-04-28T08:30:16;13.63;;;6.18;;
43363;SDS011;40636;52.424;-1.948;2023-04-28T08:32:43;12.70;;;7.22;;
43363;SDS011;40636;52.424;-1.948;2023-04-28T08:35:11;12.27;;;6.00;;
43363;SDS011;40636;52.424;-1.948;2023-04-28T08:37:38;13.00;;;6.63;;
43363;SDS011;40636;52.424;-1.948;2023-04-28T08:40:05;11.40;;;6.97;;
43363;SDS011;40636;52.424;-1.948;2023-04-28T08:42:36;10.13;;;6.57;;
43363;SDS011;40636;52.424;-1.948;2023-04-28T08:45:03;11.95;;;6.35;;
43363;SDS011;40636;52.424;-1.948;2023-04-28T08:47:37;14.00;;;7.57;;
43363;SDS011;40636;52.424;-1.948;2023-04-28T08:50:06;15.88;;;6.75;;
43363;SDS011;40636;52.424;-1.948;2023-04-28T08:52:34;15.77;;;7.05;;
43363;SDS011;40636;52.424;-1.948;2023-04-28T08:55:04;15.23;;;7.63;;
43363;SDS011;40636;52.424;-1.948;2023-04-28T08:57:41;12.77;;;6.88;;
43363;SDS011;40636;52.424;-1.948;2023-04-28T09:00:10;13.57;;;6.90;;
43363;SDS011;40636;52.424;-1.948;2023-04-28T09:02:37;16.75;;;7.22;;
43363;SDS011;40636;52.424;-1.948;2023-04-28T09:05:08;15.93;;;7.65;;
43363;SDS011;40636;52.424;-1.948;2023-04-28T09:07:35;17.45;;;6.68;;
43363;SDS011;40636;52.424;-1.948;2023-04-28T09:10:15;12.38;;;6.22;;
43363;SDS011;40636;52.424;-1.948;2023-04-28T09:12:43;12.93;;;6.53;;
43363;SDS011;40636;52.424;-1.948;2023-04-28T09:15:10;15.10;;;7.40;;
43363;SDS011;40636;52.424;-1.948;2023-04-28T09:17:46;13.98;;;6.90;;
43363;SDS011;40636;52.424;-1.948;2023-04-28T09:20:21;14.02;;;8.55;;
43363;SDS011;40636;52.424;-1.948;2023-04-28T09:22:51;13.23;;;6.88;;
43363;SDS011;40636;52.424;-1.948;2023-04-28T09:25:18;13.70;;;6.65;;
43363;SDS011;40636;52.424;-1.948;2023-04-28T09:27:47;13.15;;;6.93;;
43363;SDS011;40636;52.424;-1.948;2023-04-28T09:30:17;11.75;;;5.75;;
43363;SDS011;40636;52.424;-1.948;2023-04-28T09:32:43;13.32;;;6.68;;
43363;SDS011;40636;52.424;-1.948;2023-04-28T09:35:10;10.52;;;6.65;;
43363;SDS011;40636;52.424;-1.948;2023-04-28T09:37:37;10.27;;;5.75;;
43363;SDS011;40636;52.424;-1.948;2023-04-28T09:40:05;10.93;;;6.05;;
43363;SDS011;40636;52.424;-1.948;2023-04-28T09:45:12;11.52;;;6.03;;
43363;SDS011;40636;52.424;-1.948;2023-04-28T09:47:43;12.13;;;6.30;;
43363;SDS011;40636;52.424;-1.948;2023-04-28T09:50:13;11.05;;;5.93;;
43363;SDS011;40636;52.424;-1.948;2023-04-28T09:52:44;11.07;;;6.53;;
43363;SDS011;40636;52.424;-1.948;2023-04-28T09:55:22;10.13;;;6.30;;
43363;SDS011;40636;52.424;-1.948;2023-04-28T09:57:49;13.05;;;6.07;;
43363;SDS011;40636;52.424;-1.948;2023-04-28T10:00:20;10.77;;;6.00;;
43363;SDS011;40636;52.424;-1.948;2023-04-28T10:02:48;10.25;;;5.97;;
43363;SDS011;40636;52.424;-1.948;2023-04-28T10:05:17;10.40;;;5.72;;
43363;SDS011;40636;52.424;-1.948;2023-04-28T10:07:45;10.35;;;6.57;;
43363;SDS011;40636;52.424;-1.948;2023-04-28T10:10:12;12.80;;;6.47;;
43363;SDS011;40636;52.424;-1.948;2023-04-28T10:12:40;11.35;;;5.80;;
43363;SDS011;40636;52.424;-1.948;2023-04-28T10:15:10;11.93;;;6.93;;
43363;SDS011;40636;52.424;-1.948;2023-04-28T10:17:38;11.77;;;6.22;;
43363;SDS011;40636;52.424;-1.948;2023-04-28T10:20:06;13.23;;;6.35;;
43363;SDS011;40636;52.424;-1.948;2023-04-28T10:22:50;9.48;;;6.05;;
43363;SDS011;40636;52.424;-1.948;2023-04-28T10:25:37;13.07;;;5.78;;
43363;SDS011;40636;52.424;-1.948;2023-04-28T10:28:07;12.15;;;7.35;;
43363;SDS011;40636;52.424;-1.948;2023-04-28T10:30:35;12.90;;;6.60;;
43363;SDS011;40636;52.424;-1.948;2023-04-28T10:35:40;11.80;;;6.38;;
43363;SDS011;40636;52.424;-1.948;2023-04-28T10:38:09;15.18;;;7.28;;
43363;SDS011;40636;52.424;-1.948;2023-04-28T10:40:41;13.73;;;6.38;;
43363;SDS011;40636;52.424;-1.948;2023-04-28T10:43:11;8.68;;;5.50;;
43363;SDS011;40636;52.424;-1.948;2023-04-28T10:56:08;8.50;;;6.20;;
43363;SDS011;40636;52.424;-1.948;2023-04-28T10:58:36;10.25;;;5.75;;
43363;SDS011;40636;52.424;-1.948;2023-04-28T11:06:34;10.57;;;5.70;;
43363;SDS011;40636;52.424;-1.948;2023-04-28T11:11:38;8.27;;;5.50;;
43363;SDS011;40636;52.424;-1.948;2023-04-28T11:16:48;9.30;;;6.22;;
43363;SDS011;40636;52.424;-1.948;2023-04-28T11:19:26;9.43;;;5.50;;
43363;SDS011;40636;52.424;-1.948;2023-04-28T11:22:05;9.57;;;5.53;;
43363;SDS011;40636;52.424;-1.948;2023-04-28T11:24:55;8.15;;;5.18;;
43363;SDS011;40636;52.424;-1.948;2023-04-28T11:27:26;8.52;;;5.25;;
43363;SDS011;40636;52.424;-1.948;2023-04-28T11:29:55;9.57;;;5.03;;
43363;SDS011;40636;52.424;-1.948;2023-04-28T11:32:28;11.70;;;4.82;;
43363;SDS011;40636;52.424;-1.948;2023-04-28T11:34:57;9.07;;;4.63;;
43363;SDS011;40636;52.424;-1.948;2023-04-28T11:37:25;7.45;;;4.93;;
43363;SDS011;40636;52.424;-1.948;2023-04-28T11:39:52;8.02;;;4.75;;
43363;SDS011;40636;52.424;-1.948;2023-04-28T11:42:20;10.85;;;5.55;;
43363;SDS011;40636;52.424;-1.948;2023-04-28T11:44:50;9.43;;;5.88;;
43363;SDS011;40636;52.424;-1.948;2023-04-28T11:47:30;7.22;;;3.92;;
43363;SDS011;40636;52.424;-1.948;2023-04-28T11:49:59;6.75;;;4.47;;
43363;SDS011;40636;52.424;-1.948;2023-04-28T11:52:27;6.97;;;4.15;;
43363;SDS011;40636;52.424;-1.948;2023-04-28T11:54:54;6.25;;;4.13;;
43363;SDS011;40636;52.424;-1.948;2023-04-28T11:57:25;6.38;;;3.40;;
43363;SDS011;40636;52.424;-1.948;2023-04-28T11:59:52;6.95;;;3.60;;
43363;SDS011;40636;52.424;-1.948;2023-04-28T12:02:26;7.22;;;3.55;;
43363;SDS011;40636;52.424;-1.948;2023-04-28T12:05:03;5.38;;;3.53;;
43363;SDS011;40636;52.424;-1.948;2023-04-28T12:07:38;6.50;;;4.30;;
43363;SDS011;40636;52.424;-1.948;2023-04-28T12:12:41;6.50;;;3.92;;
43363;SDS011;40636;52.424;-1.948;2023-04-28T12:15:17;5.45;;;3.60;;
43363;SDS011;40636;52.424;-1.948;2023-04-28T12:17:46;6.10;;;3.92;;
43363;SDS011;40636;52.424;-1.948;2023-04-28T12:20:32;4.75;;;3.40;;
43363;SDS011;40636;52.424;-1.948;2023-04-28T12:23:01;6.28;;;3.50;;
43363;SDS011;40636;52.424;-1.948;2023-04-28T12:25:28;6.25;;;3.60;;
43363;SDS011;40636;52.424;-1.948;2023-04-28T12:30:25;5.45;;;3.65;;
43363;SDS011;40636;52.424;-1.948;2023-04-28T12:32:52;6.80;;;4.00;;
43363;SDS011;40636;52.424;-1.948;2023-04-28T12:35:21;7.05;;;3.90;;
43363;SDS011;40636;52.424;-1.948;2023-04-28T12:37:49;6.93;;;5.10;;
43363;SDS011;40636;52.424;-1.948;2023-04-28T12:40:15;9.32;;;5.35;;
43363;SDS011;40636;52.424;-1.948;2023-04-28T12:42:42;6.28;;;4.57;;
43363;SDS011;40636;52.424;-1.948;2023-04-28T12:45:09;8.68;;;5.70;;
43363;SDS011;40636;52.424;-1.948;2023-04-28T12:47:35;6.13;;;3.30;;
43363;SDS011;40636;52.424;-1.948;2023-04-28T12:50:06;7.10;;;4.63;;
43363;SDS011;40636;52.424;-1.948;2023-04-28T12:52:34;8.80;;;5.20;;
43363;SDS011;40636;52.424;-1.948;2023-04-28T12:55:02;8.95;;;4.50;;
43363;SDS011;40636;52.424;-1.948;2023-04-28T12:57:29;9.90;;;5.75;;
43363;SDS011;40636;52.424;-1.948;2023-04-28T12:59:56;7.40;;;5.18;;
43363;SDS011;40636;52.424;-1.948;2023-04-28T13:02:23;8.35;;;4.72;;
43363;SDS011;40636;52.424;-1.948;2023-04-28T13:04:50;10.43;;;6.03;;
43363;SDS011;40636;52.424;-1.948;2023-04-28T13:07:18;8.88;;;5.22;;
43363;SDS011;40636;52.424;-1.948;2023-04-28T13:09:45;9.75;;;6.10;;
43363;SDS011;40636;52.424;-1.948;2023-04-28T13:12:13;10.40;;;6.18;;
43363;SDS011;40636;52.424;-1.948;2023-04-28T13:14:40;10.57;;;5.82;;
43363;SDS011;40636;52.424;-1.948;2023-04-28T13:17:07;9.80;;;6.28;;
43363;SDS011;40636;52.424;-1.948;2023-04-28T13:19:35;12.10;;;6.43;;
43363;SDS011;40636;52.424;-1.948;2023-04-28T13:22:02;11.00;;;7.25;;
43363;SDS011;40636;52.424;-1.948;2023-04-28T13:24:30;10.93;;;6.85;;
43363;SDS011;40636;52.424;-1.948;2023-04-28T13:26:58;10.95;;;6.95;;
43363;SDS011;40636;52.424;-1.948;2023-04-28T13:29:25;11.18;;;6.95;;
43363;SDS011;40636;52.424;-1.948;2023-04-28T13:31:52;9.88;;;6.20;;
43363;SDS011;40636;52.424;-1.948;2023-04-28T13:34:19;9.80;;;6.00;;
43363;SDS011;40636;52.424;-1.948;2023-04-28T13:36:46;8.60;;;5.68;;
43363;SDS011;40636;52.424;-1.948;2023-04-28T13:39:15;10.65;;;6.70;;
43363;SDS011;40636;52.424;-1.948;2023-04-28T13:41:45;9.75;;;6.18;;
43363;SDS011;40636;52.424;-1.948;2023-04-28T13:44:12;12.02;;;6.80;;
43363;SDS011;40636;52.424;-1.948;2023-04-28T13:46:38;12.07;;;6.30;;
43363;SDS011;40636;52.424;-1.948;2023-04-28T13:49:05;9.80;;;5.63;;
43363;SDS011;40636;52.424;-1.948;2023-04-28T13:51:32;11.25;;;6.47;;
43363;SDS011;40636;52.424;-1.948;2023-04-28T13:53:59;10.27;;;6.95;;
43363;SDS011;40636;52.424;-1.948;2023-04-28T13:56:30;12.32;;;6.47;;
43363;SDS011;40636;52.424;-1.948;2023-04-28T13:58:57;13.15;;;7.18;;
43363;SDS011;40636;52.424;-1.948;2023-04-28T14:01:24;10.05;;;6.22;;
43363;SDS011;40636;52.424;-1.948;2023-04-28T14:03:52;10.55;;;6.72;;
43363;SDS011;40636;52.424;-1.948;2023-04-28T14:06:19;10.10;;;6.60;;
43363;SDS011;40636;52.424;-1.948;2023-04-28T14:08:46;10.32;;;6.50;;
43363;SDS011;40636;52.424;-1.948;2023-04-28T14:11:13;8.70;;;5.40;;
43363;SDS011;40636;52.424;-1.948;2023-04-28T14:13:40;9.98;;;5.72;;
43363;SDS011;40636;52.424;-1.948;2023-04-28T14:16:07;8.02;;;5.45;;
43363;SDS011;40636;52.424;-1.948;2023-04-28T14:18:34;10.93;;;6.85;;
43363;SDS011;40636;52.424;-1.948;2023-04-28T14:21:01;10.52;;;6.13;;
43363;SDS011;40636;52.424;-1.948;2023-04-28T14:23:28;9.30;;;6.20;;
43363;SDS011;40636;52.424;-1.948;2023-04-28T14:25:56;10.18;;;6.43;;
43363;SDS011;40636;52.424;-1.948;2023-04-28T14:28:23;12.35;;;6.68;;
43363;SDS011;40636;52.424;-1.948;2023-04-28T14:33:19;13.57;;;6.43;;
43363;SDS011;40636;52.424;-1.948;2023-04-28T14:35:46;13.38;;;6.97;;
43363;SDS011;40636;52.424;-1.948;2023-04-28T14:38:12;9.15;;;6.32;;
43363;SDS011;40636;52.424;-1.948;2023-04-28T14:40:39;9.57;;;6.68;;
43363;SDS011;40636;52.424;-1.948;2023-04-28T14:43:08;9.23;;;5.60;;
43363;SDS011;40636;52.424;-1.948;2023-04-28T14:45:35;8.85;;;5.25;;
43363;SDS011;40636;52.424;-1.948;2023-04-28T14:48:03;9.57;;;5.68;;
43363;SDS011;40636;52.424;-1.948;2023-04-28T14:50:32;9.80;;;5.90;;
43363;SDS011;40636;52.424;-1.948;2023-04-28T14:52:59;9.10;;;5.30;;
43363;SDS011;40636;52.424;-1.948;2023-04-28T14:55:31;8.38;;;5.70;;